Bents Old Fort, Colorado
Current Conditions -  °F | °C
As of 3:53 AM on Saturday 20 Dec 2014 (Local Time) from KLHX Reporting Station
Clear Clear  
Wind Chill: 14°   Ceiling: Unl
Heat Index: 22°   Visibility: 10mi
Dew Point: 19°   Wind: 6mph
Humidity: 89%   Direction: 250°WSW
Pressure: 30.04"   Gusts: NA
Location:  37.8368°N, 103.544°W
Report Text: KLHX 201053Z AUTO 25005KT 10SM CLR M06/M07 A3004 RMK AO2 SLP182 T10561072
Loading
Personal Weather Stations






























Interactive Weather Map New forecast layout! Learn more

10-Day Weather Forecast

Advertisements
Track Severe Weather on mobile